RYR12RZ LEZL-LEPA
Flight info
| Callsign | RYR12RZ |
|---|---|
| Flight time | 1h 17m |
| Altitude | 36000 |
| Route | MAR DCT MGA DCT RIXUR DCT UNTOS DCT ROLAS DCT TOSGA DCT RESTU DCT ALT DCT SUMMO DCT MITOS DCT BRUNO DCT RUXET |
| Aircraft | A320/M-SDE3FGHIRWY/LB1 |
Departure
| Time | 2026-03-27 10:33 |
|---|---|
| Airport | Seville Airport (LEZL) |
Arrival
| Time | 2026-03-27 11:50 |
|---|---|
| Airport | Palma de Mallorca Airport (LEPA) |
| Time | Latitude | Longitude | Altitude | Speed | Heading |
|---|---|---|---|---|---|
| 2026-03-27 10:16 | 37.42186 | -5.89985 | 91 ft | 0 kts | 315° |
| 2026-03-27 10:25 | 37.42176 | -5.89973 | 91 ft | 2 kts | 314° |
| 2026-03-27 10:25 | 37.42166 | -5.89959 | 90 ft | 2 kts | 315° |
| 2026-03-27 10:25 | 37.42157 | -5.89948 | 90 ft | 0 kts | 315° |
| 2026-03-27 10:25 | 37.42149 | -5.89937 | 90 ft | 2 kts | 292° |
| 2026-03-27 10:26 | 37.42146 | -5.89919 | 90 ft | 2 kts | 267° |
| 2026-03-27 10:26 | 37.42149 | -5.89900 | 90 ft | 2 kts | 240° |
| 2026-03-27 10:26 | 37.42154 | -5.89892 | 90 ft | 1 kts | 225° |
| 2026-03-27 10:26 | 37.42158 | -5.89887 | 90 ft | 0 kts | 226° |
| 2026-03-27 10:28 | 37.42104 | -5.89957 | 90 ft | 8 kts | 225° |
| 2026-03-27 10:28 | 37.42057 | -5.90026 | 88 ft | 11 kts | 252° |
| 2026-03-27 10:29 | 37.42008 | -5.90099 | 87 ft | 12 kts | 200° |
| 2026-03-27 10:29 | 37.41979 | -5.90201 | 87 ft | 13 kts | 270° |
| 2026-03-27 10:29 | 37.41978 | -5.90327 | 87 ft | 14 kts | 270° |
| 2026-03-27 10:29 | 37.41978 | -5.90464 | 84 ft | 14 kts | 270° |
| 2026-03-27 10:30 | 37.41977 | -5.90599 | 84 ft | 15 kts | 270° |
| 2026-03-27 10:30 | 37.41977 | -5.90746 | 82 ft | 17 kts | 270° |
| 2026-03-27 10:30 | 37.41977 | -5.90869 | 81 ft | 11 kts | 270° |
| 2026-03-27 10:30 | 37.41977 | -5.90972 | 81 ft | 12 kts | 269° |
| 2026-03-27 10:31 | 37.41976 | -5.91087 | 81 ft | 13 kts | 270° |
| 2026-03-27 10:31 | 37.41974 | -5.91213 | 79 ft | 15 kts | 268° |
| 2026-03-27 10:31 | 37.41910 | -5.91315 | 77 ft | 16 kts | 179° |
| 2026-03-27 10:31 | 37.41828 | -5.91219 | 77 ft | 16 kts | 119° |
| 2026-03-27 10:32 | 37.41792 | -5.91082 | 78 ft | 34 kts | 91° |
| 2026-03-27 10:32 | 37.41790 | -5.90491 | 83 ft | 98 kts | 89° |
| 2026-03-27 10:32 | 37.41796 | -5.89383 | 88 ft | 152 kts | 90° |
| 2026-03-27 10:32 | 37.41778 | -5.87966 | 452 ft | 166 kts | 90° |
| 2026-03-27 10:33 | 37.41743 | -5.86531 | 1109 ft | 166 kts | 90° |
| 2026-03-27 10:33 | 37.41689 | -5.85100 | 1754 ft | 165 kts | 91° |
| 2026-03-27 10:33 | 37.41634 | -5.83638 | 2147 ft | 175 kts | 91° |
| 2026-03-27 10:33 | 37.41590 | -5.82031 | 2454 ft | 190 kts | 89° |
| 2026-03-27 10:34 | 37.41709 | -5.80308 | 2682 ft | 212 kts | 78° |
| 2026-03-27 10:34 | 37.42108 | -5.78457 | 3061 ft | 229 kts | 71° |
| 2026-03-27 10:34 | 37.42562 | -5.76464 | 3470 ft | 246 kts | 78° |
| 2026-03-27 10:34 | 37.42730 | -5.74296 | 4165 ft | 252 kts | 87° |
| 2026-03-27 10:35 | 37.42733 | -5.72096 | 4954 ft | 254 kts | 88° |
| 2026-03-27 10:35 | 37.42713 | -5.69892 | 5729 ft | 257 kts | 88° |
| 2026-03-27 10:35 | 37.42689 | -5.67640 | 6531 ft | 259 kts | 87° |
| 2026-03-27 10:35 | 37.42584 | -5.65391 | 7294 ft | 264 kts | 99° |
| 2026-03-27 10:36 | 37.41820 | -5.63251 | 8012 ft | 275 kts | 116° |
| 2026-03-27 10:36 | 37.40795 | -5.61215 | 8742 ft | 279 kts | 118° |
| 2026-03-27 10:36 | 37.39741 | -5.59164 | 9441 ft | 283 kts | 117° |
| 2026-03-27 10:36 | 37.38688 | -5.57066 | 10127 ft | 286 kts | 116° |
| 2026-03-27 10:37 | 37.37647 | -5.54931 | 10645 ft | 295 kts | 115° |
| 2026-03-27 10:37 | 37.36561 | -5.52656 | 10952 ft | 312 kts | 116° |
| 2026-03-27 10:37 | 37.35430 | -5.50263 | 11231 ft | 328 kts | 116° |
| 2026-03-27 10:37 | 37.34240 | -5.47741 | 11502 ft | 344 kts | 116° |
| 2026-03-27 10:38 | 37.32998 | -5.45106 | 11841 ft | 356 kts | 116° |
| 2026-03-27 10:38 | 37.31739 | -5.42433 | 12393 ft | 360 kts | 116° |
| 2026-03-27 10:38 | 37.30460 | -5.39722 | 12997 ft | 362 kts | 116° |
| 2026-03-27 10:38 | 37.29180 | -5.37007 | 13599 ft | 364 kts | 116° |
| 2026-03-27 10:39 | 37.27886 | -5.34263 | 14198 ft | 367 kts | 117° |
| 2026-03-27 10:39 | 37.26586 | -5.31503 | 14729 ft | 370 kts | 117° |
| 2026-03-27 10:39 | 37.25277 | -5.28726 | 15248 ft | 374 kts | 117° |
| 2026-03-27 10:39 | 37.23943 | -5.25896 | 15767 ft | 377 kts | 117° |
| 2026-03-27 10:40 | 37.22609 | -5.23071 | 16269 ft | 380 kts | 117° |
| 2026-03-27 10:40 | 37.21258 | -5.20213 | 16788 ft | 383 kts | 117° |
| 2026-03-27 10:40 | 37.19905 | -5.17350 | 17283 ft | 386 kts | 117° |
| 2026-03-27 10:40 | 37.18535 | -5.14452 | 17776 ft | 388 kts | 117° |
| 2026-03-27 10:41 | 37.17150 | -5.11526 | 18246 ft | 391 kts | 117° |
| 2026-03-27 10:41 | 37.15755 | -5.08586 | 18724 ft | 394 kts | 117° |
| 2026-03-27 10:41 | 37.14370 | -5.05664 | 19169 ft | 397 kts | 117° |
| 2026-03-27 10:41 | 37.12954 | -5.02683 | 19614 ft | 400 kts | 117° |
| 2026-03-27 10:42 | 37.11523 | -4.99675 | 20052 ft | 402 kts | 117° |
| 2026-03-27 10:42 | 37.10089 | -4.96661 | 20482 ft | 405 kts | 117° |
| 2026-03-27 10:42 | 37.08658 | -4.93656 | 20917 ft | 407 kts | 117° |
| 2026-03-27 10:42 | 37.07205 | -4.90608 | 21347 ft | 409 kts | 117° |
| 2026-03-27 10:43 | 37.05736 | -4.87528 | 21776 ft | 411 kts | 117° |
| 2026-03-27 10:43 | 37.02802 | -4.81380 | 22543 ft | 416 kts | 117° |
| 2026-03-27 10:43 | 37.01320 | -4.78282 | 22910 ft | 419 kts | 117° |
| 2026-03-27 10:44 | 36.99814 | -4.75137 | 23293 ft | 421 kts | 117° |
| 2026-03-27 10:44 | 36.98319 | -4.72016 | 23640 ft | 423 kts | 117° |
| 2026-03-27 10:44 | 36.96804 | -4.68857 | 23994 ft | 425 kts | 117° |
| 2026-03-27 10:44 | 36.95275 | -4.65669 | 24351 ft | 427 kts | 117° |
| 2026-03-27 10:45 | 36.93759 | -4.62516 | 24700 ft | 429 kts | 117° |
| 2026-03-27 10:45 | 36.92217 | -4.59313 | 25053 ft | 431 kts | 117° |
| 2026-03-27 10:45 | 36.90683 | -4.56123 | 25403 ft | 432 kts | 117° |
| 2026-03-27 10:45 | 36.89130 | -4.52898 | 25718 ft | 434 kts | 117° |
| 2026-03-27 10:46 | 36.87559 | -4.49638 | 26020 ft | 436 kts | 117° |
| 2026-03-27 10:46 | 36.86012 | -4.46431 | 26310 ft | 438 kts | 117° |
| 2026-03-27 10:46 | 36.84437 | -4.43169 | 26610 ft | 440 kts | 116° |
| 2026-03-27 10:46 | 36.83203 | -4.39688 | 26875 ft | 434 kts | 101° |
| 2026-03-27 10:47 | 36.82861 | -4.35995 | 27172 ft | 429 kts | 85° |
| 2026-03-27 10:47 | 36.83368 | -4.32387 | 27423 ft | 426 kts | 70° |
| 2026-03-27 10:47 | 36.84589 | -4.29027 | 27689 ft | 425 kts | 62° |
| 2026-03-27 10:47 | 36.85931 | -4.25768 | 27986 ft | 426 kts | 62° |
| 2026-03-27 10:48 | 36.87272 | -4.22504 | 28358 ft | 425 kts | 62° |
| 2026-03-27 10:48 | 36.88613 | -4.19220 | 28768 ft | 423 kts | 62° |
| 2026-03-27 10:48 | 36.89948 | -4.15934 | 29160 ft | 421 kts | 62° |
| 2026-03-27 10:48 | 36.91263 | -4.12688 | 29498 ft | 421 kts | 62° |
| 2026-03-27 10:49 | 36.92570 | -4.09455 | 29828 ft | 420 kts | 62° |
| 2026-03-27 10:49 | 36.93887 | -4.06188 | 30199 ft | 419 kts | 62° |
| 2026-03-27 10:49 | 36.95186 | -4.02963 | 30558 ft | 417 kts | 62° |
| 2026-03-27 10:49 | 36.96486 | -3.99734 | 30899 ft | 416 kts | 62° |
| 2026-03-27 10:50 | 36.97791 | -3.96483 | 31232 ft | 415 kts | 62° |
| 2026-03-27 10:50 | 36.99070 | -3.93299 | 31539 ft | 414 kts | 62° |
| 2026-03-27 10:50 | 37.00365 | -3.90067 | 31823 ft | 414 kts | 62° |
| 2026-03-27 10:50 | 37.01653 | -3.86848 | 32110 ft | 414 kts | 62° |
| 2026-03-27 10:51 | 37.02935 | -3.83643 | 32409 ft | 413 kts | 62° |
| 2026-03-27 10:51 | 37.04208 | -3.80457 | 32687 ft | 413 kts | 62° |
| 2026-03-27 10:51 | 37.05486 | -3.77256 | 32943 ft | 412 kts | 62° |
| 2026-03-27 10:51 | 37.06764 | -3.74048 | 33231 ft | 412 kts | 62° |
| 2026-03-27 10:52 | 37.08041 | -3.70844 | 33502 ft | 411 kts | 62° |
| 2026-03-27 10:52 | 37.09312 | -3.67646 | 33780 ft | 410 kts | 62° |
| 2026-03-27 10:52 | 37.10566 | -3.64491 | 34049 ft | 409 kts | 62° |
| 2026-03-27 10:52 | 37.11842 | -3.61281 | 34301 ft | 409 kts | 62° |
| 2026-03-27 10:53 | 37.13110 | -3.58087 | 34507 ft | 409 kts | 62° |
| 2026-03-27 10:53 | 37.14363 | -3.54924 | 34688 ft | 409 kts | 62° |
| 2026-03-27 10:53 | 37.15629 | -3.51727 | 34823 ft | 410 kts | 62° |
| 2026-03-27 10:53 | 37.16896 | -3.48523 | 34942 ft | 412 kts | 62° |
| 2026-03-27 10:54 | 37.18172 | -3.45295 | 35052 ft | 414 kts | 62° |
| 2026-03-27 10:54 | 37.19452 | -3.42052 | 35159 ft | 415 kts | 62° |
| 2026-03-27 10:54 | 37.20723 | -3.38827 | 35294 ft | 416 kts | 62° |
| 2026-03-27 10:54 | 37.22004 | -3.35570 | 35402 ft | 417 kts | 62° |
| 2026-03-27 10:55 | 37.23286 | -3.32310 | 35521 ft | 418 kts | 62° |
| 2026-03-27 10:55 | 37.24574 | -3.29032 | 35634 ft | 419 kts | 63° |
| 2026-03-27 10:55 | 37.25854 | -3.25773 | 35726 ft | 420 kts | 62° |
| 2026-03-27 10:56 | 37.28425 | -3.19216 | 35939 ft | 421 kts | 63° |
| 2026-03-27 10:56 | 37.31022 | -3.12574 | 35999 ft | 423 kts | 63° |
| 2026-03-27 10:57 | 37.33602 | -3.05961 | 36001 ft | 424 kts | 63° |
| 2026-03-27 10:57 | 37.36187 | -2.99317 | 36021 ft | 424 kts | 62° |
| 2026-03-27 10:58 | 37.38768 | -2.92671 | 36020 ft | 424 kts | 62° |
| 2026-03-27 10:58 | 37.41346 | -2.86022 | 35999 ft | 425 kts | 63° |
| 2026-03-27 10:59 | 37.43924 | -2.79362 | 36010 ft | 425 kts | 62° |
| 2026-03-27 10:59 | 37.46512 | -2.72659 | 36001 ft | 425 kts | 62° |
| 2026-03-27 11:00 | 37.49091 | -2.65961 | 36004 ft | 425 kts | 63° |
| 2026-03-27 11:00 | 37.51658 | -2.59282 | 36005 ft | 426 kts | 62° |
| 2026-03-27 11:01 | 37.54226 | -2.52585 | 35997 ft | 426 kts | 62° |
| 2026-03-27 11:01 | 37.56794 | -2.45874 | 36007 ft | 427 kts | 62° |
| 2026-03-27 11:02 | 37.59355 | -2.39163 | 36012 ft | 428 kts | 62° |
| 2026-03-27 11:02 | 37.61927 | -2.32409 | 36010 ft | 428 kts | 63° |
| 2026-03-27 11:03 | 37.64495 | -2.25660 | 36006 ft | 428 kts | 63° |
| 2026-03-27 11:03 | 37.67069 | -2.18887 | 36021 ft | 428 kts | 63° |
| 2026-03-27 11:04 | 37.69638 | -2.12111 | 36018 ft | 428 kts | 63° |
| 2026-03-27 11:04 | 37.72192 | -2.05354 | 36009 ft | 429 kts | 63° |
| 2026-03-27 11:05 | 37.74754 | -1.98559 | 36016 ft | 429 kts | 63° |
| 2026-03-27 11:05 | 37.77322 | -1.91744 | 36019 ft | 430 kts | 63° |
| 2026-03-27 11:06 | 37.79869 | -1.84960 | 36035 ft | 430 kts | 63° |
| 2026-03-27 11:06 | 37.82433 | -1.78114 | 36030 ft | 431 kts | 63° |
| 2026-03-27 11:07 | 37.84988 | -1.71279 | 36038 ft | 430 kts | 63° |
| 2026-03-27 11:07 | 37.87530 | -1.64464 | 36048 ft | 430 kts | 63° |
| 2026-03-27 11:08 | 37.90081 | -1.57607 | 36064 ft | 430 kts | 63° |
| 2026-03-27 11:08 | 37.92615 | -1.50785 | 36099 ft | 431 kts | 63° |
| 2026-03-27 11:09 | 37.95164 | -1.43905 | 36103 ft | 431 kts | 63° |
| 2026-03-27 11:09 | 37.97689 | -1.37066 | 36113 ft | 431 kts | 63° |
| 2026-03-27 11:10 | 38.00214 | -1.30217 | 36108 ft | 431 kts | 63° |
| 2026-03-27 11:10 | 38.02757 | -1.23306 | 36107 ft | 431 kts | 63° |
| 2026-03-27 11:11 | 38.05283 | -1.16416 | 36109 ft | 431 kts | 63° |
| 2026-03-27 11:11 | 38.07807 | -1.09525 | 36091 ft | 432 kts | 63° |
| 2026-03-27 11:12 | 38.10318 | -1.02653 | 36108 ft | 432 kts | 63° |
| 2026-03-27 11:12 | 38.12840 | -0.95729 | 36096 ft | 432 kts | 63° |
| 2026-03-27 11:13 | 38.15352 | -0.88820 | 36055 ft | 432 kts | 63° |
| 2026-03-27 11:13 | 38.17862 | -0.81896 | 36091 ft | 432 kts | 63° |
| 2026-03-27 11:14 | 38.20354 | -0.75008 | 36085 ft | 432 kts | 63° |
| 2026-03-27 11:14 | 38.22863 | -0.68053 | 36096 ft | 431 kts | 63° |
| 2026-03-27 11:15 | 38.25348 | -0.61157 | 36082 ft | 433 kts | 63° |
| 2026-03-27 11:15 | 38.27765 | -0.54135 | 36083 ft | 433 kts | 65° |
| 2026-03-27 11:16 | 38.30032 | -0.47062 | 36081 ft | 433 kts | 65° |
| 2026-03-27 11:16 | 38.32285 | -0.39989 | 36089 ft | 433 kts | 65° |
| 2026-03-27 11:17 | 38.34536 | -0.32910 | 36096 ft | 434 kts | 65° |
| 2026-03-27 11:17 | 38.36808 | -0.25824 | 36078 ft | 434 kts | 64° |
| 2026-03-27 11:18 | 38.39181 | -0.18730 | 36080 ft | 435 kts | 64° |
| 2026-03-27 11:18 | 38.41544 | -0.11660 | 36063 ft | 435 kts | 64° |
| 2026-03-27 11:19 | 38.43882 | -0.04617 | 36059 ft | 435 kts | 65° |
| 2026-03-27 11:19 | 38.46205 | 0.02479 | 36048 ft | 435 kts | 65° |
| 2026-03-27 11:20 | 38.48492 | 0.09600 | 36059 ft | 436 kts | 65° |
| 2026-03-27 11:20 | 38.50775 | 0.16733 | 36065 ft | 436 kts | 65° |
| 2026-03-27 11:21 | 38.53059 | 0.23870 | 36033 ft | 435 kts | 65° |
| 2026-03-27 11:21 | 38.55342 | 0.31026 | 36083 ft | 436 kts | 64° |
| 2026-03-27 11:22 | 38.57617 | 0.38177 | 36081 ft | 436 kts | 64° |
| 2026-03-27 11:22 | 38.59891 | 0.45334 | 36065 ft | 436 kts | 64° |
| 2026-03-27 11:23 | 38.62165 | 0.52518 | 36092 ft | 437 kts | 64° |
| 2026-03-27 11:23 | 38.64429 | 0.59691 | 36066 ft | 436 kts | 64° |
| 2026-03-27 11:24 | 38.66356 | 0.67006 | 36074 ft | 440 kts | 71° |
| 2026-03-27 11:24 | 38.67667 | 0.74670 | 36072 ft | 443 kts | 77° |
| 2026-03-27 11:25 | 38.68546 | 0.82455 | 36083 ft | 444 kts | 78° |
| 2026-03-27 11:25 | 38.69403 | 0.90292 | 36035 ft | 444 kts | 78° |
| 2026-03-27 11:26 | 38.70255 | 0.98052 | 36064 ft | 444 kts | 78° |
| 2026-03-27 11:26 | 38.71108 | 1.05917 | 36075 ft | 445 kts | 77° |
| 2026-03-27 11:27 | 38.71952 | 1.13727 | 36084 ft | 445 kts | 77° |
| 2026-03-27 11:27 | 38.72796 | 1.21557 | 36089 ft | 445 kts | 77° |
| 2026-03-27 11:27 | 38.73218 | 1.25469 | 35908 ft | 446 kts | 77° |
| 2026-03-27 11:28 | 38.73690 | 1.29362 | 35458 ft | 439 kts | 72° |
| 2026-03-27 11:28 | 38.74563 | 1.33013 | 34941 ft | 430 kts | 63° |
| 2026-03-27 11:28 | 38.75839 | 1.36436 | 34370 ft | 423 kts | 54° |
| 2026-03-27 11:28 | 38.77371 | 1.39617 | 33724 ft | 419 kts | 52° |
| 2026-03-27 11:29 | 38.78923 | 1.42721 | 33097 ft | 417 kts | 52° |
| 2026-03-27 11:29 | 38.80476 | 1.45826 | 32441 ft | 416 kts | 52° |
| 2026-03-27 11:29 | 38.82024 | 1.48926 | 31790 ft | 415 kts | 52° |
| 2026-03-27 11:29 | 38.83575 | 1.52050 | 31141 ft | 417 kts | 52° |
| 2026-03-27 11:30 | 38.85128 | 1.55186 | 30486 ft | 419 kts | 52° |
| 2026-03-27 11:30 | 38.86695 | 1.58362 | 29784 ft | 419 kts | 52° |
| 2026-03-27 11:30 | 38.88239 | 1.61491 | 29045 ft | 420 kts | 52° |
| 2026-03-27 11:30 | 38.89795 | 1.64641 | 28207 ft | 423 kts | 52° |
| 2026-03-27 11:31 | 38.91357 | 1.67819 | 27414 ft | 424 kts | 53° |
| 2026-03-27 11:31 | 38.92933 | 1.71036 | 26795 ft | 420 kts | 53° |
| 2026-03-27 11:31 | 38.94477 | 1.74189 | 26217 ft | 416 kts | 53° |
| 2026-03-27 11:31 | 38.95995 | 1.77285 | 25652 ft | 412 kts | 53° |
| 2026-03-27 11:32 | 38.97507 | 1.80370 | 25122 ft | 407 kts | 53° |
| 2026-03-27 11:32 | 38.99004 | 1.83438 | 24496 ft | 405 kts | 53° |
| 2026-03-27 11:32 | 39.00498 | 1.86491 | 23879 ft | 404 kts | 53° |
| 2026-03-27 11:32 | 39.01981 | 1.89533 | 23280 ft | 402 kts | 52° |
| 2026-03-27 11:33 | 39.03460 | 1.92568 | 22689 ft | 400 kts | 52° |
| 2026-03-27 11:33 | 39.04931 | 1.95588 | 22124 ft | 397 kts | 53° |
| 2026-03-27 11:33 | 39.06380 | 1.98563 | 21612 ft | 394 kts | 52° |
| 2026-03-27 11:33 | 39.07811 | 2.01511 | 21098 ft | 391 kts | 53° |
| 2026-03-27 11:34 | 39.09259 | 2.04488 | 20556 ft | 388 kts | 53° |
| 2026-03-27 11:34 | 39.10679 | 2.07416 | 20038 ft | 386 kts | 52° |
| 2026-03-27 11:34 | 39.13493 | 2.13220 | 18981 ft | 383 kts | 53° |
| 2026-03-27 11:35 | 39.14886 | 2.16100 | 18457 ft | 381 kts | 53° |
| 2026-03-27 11:35 | 39.16276 | 2.18975 | 17906 ft | 381 kts | 53° |
| 2026-03-27 11:35 | 39.17665 | 2.21853 | 17384 ft | 379 kts | 53° |
| 2026-03-27 11:35 | 39.19051 | 2.24724 | 16892 ft | 376 kts | 52° |
| 2026-03-27 11:36 | 39.20425 | 2.27577 | 16413 ft | 373 kts | 52° |
| 2026-03-27 11:36 | 39.21788 | 2.30409 | 15956 ft | 369 kts | 52° |
| 2026-03-27 11:36 | 39.23131 | 2.33198 | 15487 ft | 366 kts | 52° |
| 2026-03-27 11:36 | 39.24461 | 2.35968 | 14991 ft | 362 kts | 52° |
| 2026-03-27 11:37 | 39.25775 | 2.38700 | 14520 ft | 359 kts | 52° |
| 2026-03-27 11:37 | 39.27076 | 2.41407 | 14027 ft | 357 kts | 52° |
| 2026-03-27 11:37 | 39.28383 | 2.44127 | 13528 ft | 354 kts | 52° |
| 2026-03-27 11:37 | 39.29665 | 2.46805 | 12995 ft | 353 kts | 52° |
| 2026-03-27 11:38 | 39.30952 | 2.49488 | 12468 ft | 351 kts | 53° |
| 2026-03-27 11:38 | 39.32223 | 2.52146 | 11965 ft | 350 kts | 53° |
| 2026-03-27 11:38 | 39.33506 | 2.54831 | 11367 ft | 350 kts | 52° |
| 2026-03-27 11:38 | 39.34780 | 2.57497 | 10948 ft | 345 kts | 53° |
| 2026-03-27 11:39 | 39.36019 | 2.60098 | 10705 ft | 334 kts | 52° |
| 2026-03-27 11:39 | 39.37211 | 2.62603 | 10503 ft | 322 kts | 53° |
| 2026-03-27 11:39 | 39.38365 | 2.65030 | 10303 ft | 313 kts | 53° |
| 2026-03-27 11:39 | 39.39485 | 2.67389 | 10140 ft | 302 kts | 53° |
| 2026-03-27 11:40 | 39.40560 | 2.69653 | 10072 ft | 289 kts | 53° |
| 2026-03-27 11:40 | 39.41575 | 2.71798 | 10066 ft | 276 kts | 52° |
| 2026-03-27 11:40 | 39.42570 | 2.73879 | 10068 ft | 273 kts | 52° |
| 2026-03-27 11:40 | 39.43539 | 2.75972 | 9956 ft | 270 kts | 54° |
| 2026-03-27 11:41 | 39.44426 | 2.78133 | 9563 ft | 273 kts | 56° |
| 2026-03-27 11:41 | 39.45290 | 2.80295 | 9087 ft | 271 kts | 57° |
| 2026-03-27 11:41 | 39.46149 | 2.82455 | 8400 ft | 272 kts | 58° |
| 2026-03-27 11:41 | 39.47008 | 2.84627 | 7712 ft | 273 kts | 58° |
| 2026-03-27 11:42 | 39.47856 | 2.86779 | 7193 ft | 267 kts | 59° |
| 2026-03-27 11:42 | 39.48699 | 2.88926 | 6810 ft | 266 kts | 59° |
| 2026-03-27 11:42 | 39.49536 | 2.91060 | 6461 ft | 268 kts | 59° |
| 2026-03-27 11:42 | 39.50388 | 2.93230 | 6116 ft | 270 kts | 59° |
| 2026-03-27 11:43 | 39.51230 | 2.95377 | 5793 ft | 271 kts | 59° |
| 2026-03-27 11:43 | 39.52083 | 2.97552 | 5588 ft | 265 kts | 60° |
| 2026-03-27 11:43 | 39.52897 | 2.99635 | 5504 ft | 255 kts | 60° |
| 2026-03-27 11:43 | 39.53691 | 3.01637 | 5382 ft | 246 kts | 56° |
| 2026-03-27 11:44 | 39.54856 | 3.03154 | 5123 ft | 235 kts | 20° |
| 2026-03-27 11:44 | 39.56398 | 3.03441 | 4880 ft | 225 kts | 349° |
| 2026-03-27 11:44 | 39.57854 | 3.02741 | 4634 ft | 219 kts | 325° |
| 2026-03-27 11:44 | 39.59044 | 3.01541 | 4457 ft | 215 kts | 321° |
| 2026-03-27 11:45 | 39.60205 | 3.00327 | 4197 ft | 214 kts | 321° |
| 2026-03-27 11:45 | 39.61364 | 2.99148 | 3778 ft | 216 kts | 322° |
| 2026-03-27 11:45 | 39.62562 | 2.97959 | 3367 ft | 216 kts | 322° |
| 2026-03-27 11:45 | 39.63613 | 2.96570 | 2945 ft | 222 kts | 297° |
| 2026-03-27 11:46 | 39.63908 | 2.94632 | 2673 ft | 224 kts | 263° |
| 2026-03-27 11:46 | 39.63405 | 2.92732 | 2621 ft | 227 kts | 243° |
| 2026-03-27 11:46 | 39.62620 | 2.91000 | 2544 ft | 216 kts | 239° |
| 2026-03-27 11:46 | 39.61834 | 2.89422 | 2361 ft | 202 kts | 239° |
| 2026-03-27 11:47 | 39.61103 | 2.87935 | 2139 ft | 190 kts | 240° |
| 2026-03-27 11:47 | 39.60424 | 2.86512 | 1878 ft | 180 kts | 241° |
| 2026-03-27 11:47 | 39.59798 | 2.85185 | 1619 ft | 169 kts | 241° |
| 2026-03-27 11:47 | 39.59199 | 2.83914 | 1374 ft | 159 kts | 242° |
| 2026-03-27 11:48 | 39.58639 | 2.82739 | 1143 ft | 147 kts | 241° |
| 2026-03-27 11:48 | 39.58112 | 2.81661 | 920 ft | 137 kts | 241° |
| 2026-03-27 11:48 | 39.57614 | 2.80605 | 736 ft | 137 kts | 242° |
| 2026-03-27 11:48 | 39.57138 | 2.79551 | 595 ft | 136 kts | 244° |
| 2026-03-27 11:49 | 39.56643 | 2.78508 | 434 ft | 136 kts | 240° |
| 2026-03-27 11:49 | 39.56147 | 2.77471 | 284 ft | 134 kts | 242° |
| 2026-03-27 11:49 | 39.55191 | 2.75436 | 10 ft | 122 kts | 240° |
| 2026-03-27 11:50 | 39.54832 | 2.74664 | 19 ft | 77 kts | 239° |
| 2026-03-27 11:50 | 39.54578 | 2.74100 | 30 ft | 68 kts | 252° |
| 2026-03-27 11:50 | 39.54563 | 2.73694 | 32 ft | 17 kts | 298° |